Time;durP1;ratioP1;P1;durP2;ratioP2;P2;SDS_P1;SDS_P2;PMS_P1;PMS_P2;Temp;Humidity;BMP_temperature;BMP_pressure;BME280_temperature;BME280_humidity;BME280_pressure;Samples;Min_cycle;Max_cycle;Signal;HPM_P1;HPM_P2
2023/12/12 00:01:22;;;;;;;0.90;0.50;;;7.20;99.90;;;;;;5067063;28;20546;-83
2023/12/12 00:03:48;;;;;;;2.63;0.50;;;7.10;99.90;;;;;;5075858;28;20953;-82
2023/12/12 00:06:15;;;;;;;1.43;0.30;;;7.10;99.90;;;;;;5075482;28;20706;-82
2023/12/12 00:08:43;;;;;;;0.80;0.40;;;7.00;99.90;;;;;;5080782;28;20462;-82
2023/12/12 00:11:10;;;;;;;0.90;0.50;;;7.00;99.90;;;;;;5071124;28;20851;-82
2023/12/12 00:13:38;;;;;;;0.70;0.40;;;6.90;99.90;;;;;;5083405;28;20539;-82
2023/12/12 00:16:06;;;;;;;0.50;0.30;;;6.80;99.90;;;;;;5067589;28;20544;-82
2023/12/12 00:18:34;;;;;;;0.90;0.50;;;6.80;99.90;;;;;;5067276;28;20474;-81
2023/12/12 00:21:01;;;;;;;0.50;0.40;;;6.80;99.90;;;;;;5072964;28;20556;-82
2023/12/12 00:23:28;;;;;;;0.60;0.60;;;6.70;99.90;;;;;;5075206;28;21004;-82
2023/12/12 00:25:55;;;;;;;0.50;0.40;;;6.60;99.90;;;;;;5073590;28;20541;-82
2023/12/12 00:28:22;;;;;;;0.50;0.37;;;6.50;99.90;;;;;;5067176;28;20452;-81
2023/12/12 00:30:51;;;;;;;0.40;0.30;;;6.40;99.90;;;;;;5065130;28;20455;-81
2023/12/12 00:33:18;;;;;;;1.10;0.53;;;6.40;99.90;;;;;;5066058;28;20938;-81
2023/12/12 00:35:45;;;;;;;0.80;0.40;;;6.30;99.90;;;;;;5075000;28;20492;-81
2023/12/12 00:38:12;;;;;;;3.73;0.60;;;6.30;99.90;;;;;;5076840;28;20458;-82
2023/12/12 00:40:39;;;;;;;0.60;0.40;;;6.20;99.90;;;;;;5064787;28;20501;-81
2023/12/12 00:43:06;;;;;;;0.67;0.40;;;6.30;99.90;;;;;;5072882;28;20440;-82
2023/12/12 00:45:32;;;;;;;1.80;0.60;;;6.20;99.90;;;;;;5067892;28;21144;-82
2023/12/12 00:48:01;;;;;;;2.40;0.43;;;6.30;99.90;;;;;;5083686;28;20509;-82
2023/12/12 00:50:28;;;;;;;0.50;0.40;;;6.30;99.90;;;;;;5087551;28;20458;-81
2023/12/12 00:52:55;;;;;;;1.00;0.30;;;6.40;99.90;;;;;;5088451;28;20445;-81
2023/12/12 00:55:23;;;;;;;0.63;0.40;;;6.50;99.90;;;;;;5078797;28;20598;-81
2023/12/12 00:57:49;;;;;;;0.93;0.40;;;6.60;99.90;;;;;;5080269;28;20835;-81
2023/12/12 01:00:18;;;;;;;2.00;0.50;;;6.70;99.90;;;;;;5072184;28;20463;-81
2023/12/12 01:02:45;;;;;;;1.33;0.50;;;6.80;99.90;;;;;;5075616;28;20527;-81
2023/12/12 01:05:13;;;;;;;0.70;0.50;;;6.90;99.90;;;;;;5077670;28;20515;-81
2023/12/12 01:07:40;;;;;;;1.13;0.70;;;6.90;99.90;;;;;;5074887;28;20454;-81
2023/12/12 01:10:08;;;;;;;0.80;0.50;;;6.90;99.90;;;;;;5086525;28;20461;-82
2023/12/12 01:12:35;;;;;;;0.83;0.60;;;6.90;99.90;;;;;;5069156;28;20702;-82
2023/12/12 01:15:02;;;;;;;0.60;0.50;;;6.90;99.90;;;;;;5064802;28;20494;-83
2023/12/12 01:17:30;;;;;;;0.70;0.50;;;6.90;99.90;;;;;;5084514;28;20445;-83
2023/12/12 01:19:56;;;;;;;0.83;0.50;;;6.90;99.90;;;;;;5068738;28;20903;-81
2023/12/12 01:22:25;;;;;;;0.60;0.50;;;6.90;99.90;;;;;;5066101;28;20463;-81
2023/12/12 01:24:52;;;;;;;0.50;0.40;;;6.90;99.90;;;;;;5065837;28;20979;-81
2023/12/12 01:27:19;;;;;;;1.80;0.50;;;7.00;99.90;;;;;;5077330;28;20774;-81
2023/12/12 01:29:46;;;;;;;0.63;0.43;;;7.10;99.90;;;;;;5064005;28;20973;-81
2023/12/12 01:32:13;;;;;;;1.17;0.40;;;7.10;99.90;;;;;;5065863;28;20531;-81
2023/12/12 01:34:40;;;;;;;0.50;0.40;;;7.20;99.90;;;;;;5071205;28;20534;-81
2023/12/12 01:37:07;;;;;;;0.73;0.40;;;7.30;99.90;;;;;;5067925;28;20512;-81
2023/12/12 01:39:36;;;;;;;0.93;0.70;;;7.30;99.90;;;;;;5070668;28;20540;-81
2023/12/12 01:42:03;;;;;;;1.00;0.50;;;7.20;99.90;;;;;;5072772;28;20783;-82
2023/12/12 01:44:30;;;;;;;0.83;0.63;;;7.20;99.90;;;;;;5065277;28;20922;-82
2023/12/12 01:46:57;;;;;;;4.63;1.63;;;7.20;99.90;;;;;;5085843;28;20453;-83
2023/12/12 01:49:24;;;;;;;0.60;0.40;;;7.20;99.90;;;;;;5076091;28;20453;-82
2023/12/12 01:51:52;;;;;;;1.17;0.70;;;7.20;99.90;;;;;;5076097;28;20524;-82
2023/12/12 01:54:19;;;;;;;0.50;0.40;;;7.20;99.90;;;;;;5074390;28;20682;-82
2023/12/12 01:56:51;;;;;;;0.70;0.50;;;7.20;99.90;;;;;;5070309;28;21151;-82
2023/12/12 01:59:22;;;;;;;0.43;0.40;;;7.20;99.90;;;;;;5080898;28;20459;-82
2023/12/12 02:01:50;;;;;;;1.40;0.70;;;7.20;99.90;;;;;;5070103;28;20663;-82
2023/12/12 02:04:18;;;;;;;0.60;0.47;;;7.20;99.90;;;;;;5069154;28;20507;-83
2023/12/12 02:06:47;;;;;;;0.70;0.40;;;7.20;99.90;;;;;;5072323;28;20520;-83
2023/12/12 02:09:15;;;;;;;1.70;0.43;;;7.20;99.90;;;;;;5076951;28;20455;-82
2023/12/12 02:11:42;;;;;;;1.00;0.70;;;7.20;99.90;;;;;;5075653;28;20447;-82
2023/12/12 02:14:11;;;;;;;0.60;0.30;;;7.10;99.90;;;;;;5079388;28;20459;-82
2023/12/12 02:16:38;;;;;;;1.40;0.60;;;7.10;99.90;;;;;;5070114;28;20501;-82
2023/12/12 02:19:05;;;;;;;2.00;0.50;;;7.10;99.90;;;;;;5065163;28;20450;-82
2023/12/12 02:21:34;;;;;;;10.70;0.70;;;7.10;99.90;;;;;;5066822;28;20469;-83
2023/12/12 02:24:01;;;;;;;1.63;0.50;;;7.00;99.90;;;;;;5071390;28;21039;-82
2023/12/12 02:26:28;;;;;;;0.60;0.40;;;7.00;99.90;;;;;;5068962;28;20731;-83
2023/12/12 02:28:55;;;;;;;6.40;0.50;;;7.00;99.90;;;;;;5069341;28;20534;-82
2023/12/12 02:31:22;;;;;;;1.07;0.40;;;7.00;99.90;;;;;;5066177;28;20468;-83
2023/12/12 02:33:49;;;;;;;0.40;0.30;;;7.00;99.90;;;;;;5064339;28;20526;-83
2023/12/12 02:36:16;;;;;;;1.03;0.30;;;7.00;99.90;;;;;;5070597;28;20482;-82
2023/12/12 02:38:44;;;;;;;0.60;0.40;;;6.90;99.90;;;;;;5070678;28;20848;-83
2023/12/12 02:41:11;;;;;;;0.47;0.40;;;6.90;99.90;;;;;;5064469;28;20478;-83
2023/12/12 02:43:38;;;;;;;0.80;0.40;;;6.90;99.90;;;;;;5073404;28;20824;-82
2023/12/12 02:46:06;;;;;;;2.60;0.60;;;6.90;99.90;;;;;;5073461;28;20454;-83
2023/12/12 02:48:33;;;;;;;2.23;0.50;;;6.90;99.90;;;;;;5073021;28;20600;-83
2023/12/12 02:51:00;;;;;;;0.53;0.50;;;6.80;99.90;;;;;;5066529;28;20627;-82
2023/12/12 02:53:27;;;;;;;1.00;0.50;;;6.90;99.90;;;;;;5067926;28;20518;-83
2023/12/12 02:55:55;;;;;;;2.30;0.60;;;6.90;99.90;;;;;;5077219;28;21022;-83
2023/12/12 02:58:22;;;;;;;2.77;0.50;;;6.90;99.90;;;;;;5066162;28;20446;-83
2023/12/12 03:00:49;;;;;;;1.03;0.60;;;6.90;99.90;;;;;;5065122;28;20475;-83
2023/12/12 03:03:16;;;;;;;0.70;0.50;;;6.90;99.90;;;;;;5070877;28;20454;-83
2023/12/12 03:05:43;;;;;;;1.87;0.80;;;7.00;99.90;;;;;;5067532;28;20526;-83
2023/12/12 03:08:10;;;;;;;0.70;0.60;;;7.00;99.90;;;;;;5083864;28;20449;-83
2023/12/12 03:10:37;;;;;;;1.03;0.40;;;7.00;99.90;;;;;;5072558;28;20683;-83
2023/12/12 03:13:06;;;;;;;0.80;0.50;;;7.10;99.90;;;;;;5076848;28;20504;-83
2023/12/12 03:15:32;;;;;;;0.50;0.43;;;7.10;99.90;;;;;;5076066;28;20877;-83
2023/12/12 03:17:59;;;;;;;0.80;0.50;;;7.10;99.90;;;;;;5065179;28;20527;-83
2023/12/12 03:20:26;;;;;;;2.87;0.70;;;7.10;99.90;;;;;;5065012;28;20440;-83
2023/12/12 03:22:53;;;;;;;1.53;0.63;;;7.10;99.90;;;;;;5067093;28;20536;-82
2023/12/12 03:25:20;;;;;;;0.67;0.60;;;7.10;99.90;;;;;;5082682;28;20757;-82
2023/12/12 03:27:47;;;;;;;1.80;0.50;;;7.10;99.90;;;;;;5064865;28;20516;-82
2023/12/12 03:30:15;;;;;;;1.93;0.60;;;7.10;99.90;;;;;;5064619;28;20507;-82
2023/12/12 03:32:42;;;;;;;0.67;0.60;;;7.20;99.90;;;;;;5061827;28;20970;-82
2023/12/12 03:35:09;;;;;;;1.90;0.50;;;7.20;99.90;;;;;;5084628;28;20446;-82
2023/12/12 03:37:36;;;;;;;0.93;0.40;;;7.10;99.90;;;;;;5083196;28;20813;-82
2023/12/12 03:40:03;;;;;;;0.80;0.80;;;7.00;99.90;;;;;;5062166;28;20497;-82
2023/12/12 03:42:30;;;;;;;0.60;0.50;;;7.10;99.90;;;;;;5074620;28;20527;-82
2023/12/12 03:44:57;;;;;;;0.90;0.60;;;7.10;99.90;;;;;;5072912;28;20471;-82
2023/12/12 03:47:26;;;;;;;0.50;0.50;;;7.10;99.90;;;;;;5087964;28;20836;-82
2023/12/12 03:49:53;;;;;;;0.50;0.40;;;7.10;99.90;;;;;;5075473;28;20532;-82
2023/12/12 03:52:20;;;;;;;0.50;0.40;;;7.00;99.90;;;;;;5077142;28;20474;-82
2023/12/12 03:54:47;;;;;;;1.90;0.50;;;7.00;99.90;;;;;;5072333;28;20904;-83
2023/12/12 03:57:14;;;;;;;0.40;0.27;;;7.00;99.90;;;;;;5071261;28;20959;-83
2023/12/12 03:59:41;;;;;;;0.70;0.63;;;6.90;99.90;;;;;;5067492;28;20444;-82
2023/12/12 04:02:08;;;;;;;0.90;0.43;;;6.80;99.90;;;;;;5062744;28;20960;-83
2023/12/12 04:04:36;;;;;;;1.17;0.43;;;6.90;99.90;;;;;;5083978;28;20547;-83
2023/12/12 04:07:04;;;;;;;1.07;0.40;;;6.90;99.90;;;;;;5067239;28;20463;-83
2023/12/12 04:09:31;;;;;;;0.80;0.30;;;6.80;99.90;;;;;;5082212;28;20473;-83
2023/12/12 04:11:58;;;;;;;0.40;0.40;;;6.90;99.90;;;;;;5073300;28;20889;-83
2023/12/12 04:14:25;;;;;;;0.50;0.30;;;6.80;99.90;;;;;;5075317;28;20513;-83
2023/12/12 04:16:52;;;;;;;0.40;0.40;;;6.70;99.90;;;;;;5062327;28;20524;-82
2023/12/12 04:19:19;;;;;;;0.73;0.50;;;6.60;99.90;;;;;;5078151;28;20456;-83
2023/12/12 04:21:47;;;;;;;0.70;0.50;;;6.60;99.90;;;;;;5063396;28;21204;-83
2023/12/12 04:24:14;;;;;;;0.50;0.40;;;6.60;99.90;;;;;;5070051;28;20454;-83
2023/12/12 04:26:41;;;;;;;0.70;0.47;;;6.50;99.90;;;;;;5078339;28;20438;-83
2023/12/12 04:29:08;;;;;;;2.40;0.47;;;6.50;99.90;;;;;;5075634;28;20470;-83
2023/12/12 04:31:36;;;;;;;0.40;0.30;;;6.50;99.90;;;;;;5076037;28;20537;-83
2023/12/12 04:34:03;;;;;;;0.50;0.40;;;6.50;99.90;;;;;;5076359;28;20451;-83
2023/12/12 04:36:30;;;;;;;1.63;0.40;;;6.40;99.90;;;;;;5080660;28;20965;-83
2023/12/12 04:38:58;;;;;;;0.60;0.40;;;6.40;99.90;;;;;;5079629;28;20451;-83
2023/12/12 04:41:25;;;;;;;0.40;0.30;;;6.40;99.90;;;;;;5070542;28;20951;-83
2023/12/12 04:43:52;;;;;;;2.00;0.50;;;6.30;99.90;;;;;;5079407;28;20908;-82
2023/12/12 04:46:20;;;;;;;0.60;0.40;;;6.30;99.90;;;;;;5079936;28;20605;-83
2023/12/12 04:48:47;;;;;;;0.70;0.43;;;6.30;99.90;;;;;;5081194;28;20543;-83
2023/12/12 04:51:15;;;;;;;0.60;0.30;;;6.30;99.90;;;;;;5077358;28;20503;-83
2023/12/12 04:53:42;;;;;;;1.70;1.60;;;6.30;99.90;;;;;;5076289;28;20445;-83
2023/12/12 04:56:11;;;;;;;0.50;0.33;;;6.30;99.90;;;;;;5071908;28;20587;-83
2023/12/12 04:58:37;;;;;;;0.80;0.40;;;6.20;99.90;;;;;;5078391;28;20893;-83
2023/12/12 05:01:08;;;;;;;1.90;0.50;;;6.30;99.90;;;;;;5073541;28;20524;-83
2023/12/12 05:03:35;;;;;;;1.43;0.50;;;6.30;99.90;;;;;;5071630;28;20442;-83
2023/12/12 05:06:10;;;;;;;1.70;0.60;;;6.20;99.90;;;;;;5072082;28;20928;-84
2023/12/12 05:08:37;;;;;;;1.20;0.50;;;6.20;99.90;;;;;;5074535;28;20443;-81
2023/12/12 05:11:05;;;;;;;2.83;0.90;;;6.20;99.90;;;;;;5077667;28;20474;-81
2023/12/12 05:13:33;;;;;;;1.00;0.40;;;6.20;99.90;;;;;;5078125;28;20471;-81
2023/12/12 05:16:00;;;;;;;0.60;0.50;;;6.30;99.90;;;;;;5077836;28;20894;-81
2023/12/12 05:18:27;;;;;;;0.53;0.40;;;6.40;99.90;;;;;;5067322;28;20521;-81
2023/12/12 05:20:54;;;;;;;0.50;0.33;;;6.40;99.90;;;;;;5080906;27;20516;-81
2023/12/12 05:23:21;;;;;;;0.60;0.50;;;6.40;99.90;;;;;;5074373;28;20458;-82
2023/12/12 05:25:49;;;;;;;0.47;0.40;;;6.30;99.90;;;;;;5068665;28;20461;-81
2023/12/12 05:28:17;;;;;;;2.83;0.60;;;6.30;99.90;;;;;;5069218;28;20464;-82
2023/12/12 05:30:46;;;;;;;0.60;0.40;;;6.30;99.90;;;;;;5069901;28;20555;-82
2023/12/12 05:33:13;;;;;;;3.20;0.40;;;6.30;99.90;;;;;;5073210;28;20464;-82
2023/12/12 05:35:40;;;;;;;5.80;0.50;;;6.30;99.90;;;;;;5078987;28;20490;-82
2023/12/12 05:38:07;;;;;;;0.40;0.40;;;6.20;99.90;;;;;;5074607;28;20972;-82
2023/12/12 05:40:35;;;;;;;4.63;0.70;;;6.20;99.90;;;;;;5075782;28;20490;-82
2023/12/12 05:43:02;;;;;;;1.77;0.40;;;6.20;99.90;;;;;;5072763;28;20459;-82
2023/12/12 05:45:29;;;;;;;2.63;1.47;;;6.10;99.90;;;;;;5073541;28;20569;-82
2023/12/12 05:47:57;;;;;;;3.17;0.50;;;6.10;99.90;;;;;;5079011;28;20500;-82
2023/12/12 05:50:25;;;;;;;1.70;0.73;;;6.00;99.90;;;;;;5068932;28;20443;-83
2023/12/12 05:52:52;;;;;;;1.87;0.50;;;5.90;99.90;;;;;;5072678;28;20456;-83
2023/12/12 05:55:19;;;;;;;1.43;0.50;;;5.70;99.90;;;;;;5071523;28;20562;-83
2023/12/12 05:57:46;;;;;;;1.07;0.40;;;5.70;99.90;;;;;;5070232;28;20631;-83
2023/12/12 06:00:14;;;;;;;1.17;0.40;;;5.60;99.90;;;;;;5070007;28;20553;-83
2023/12/12 06:02:40;;;;;;;1.93;0.60;;;5.40;99.90;;;;;;5073476;28;20467;-83
2023/12/12 06:05:09;;;;;;;2.40;0.53;;;5.30;99.90;;;;;;5069525;28;20982;-83
2023/12/12 06:07:37;;;;;;;1.80;0.57;;;5.30;99.90;;;;;;5072937;28;20825;-83
2023/12/12 06:10:05;;;;;;;1.03;0.40;;;5.30;99.90;;;;;;5065760;28;20513;-82
2023/12/12 06:12:32;;;;;;;0.90;0.83;;;5.10;99.90;;;;;;5081603;28;20972;-83
2023/12/12 06:14:59;;;;;;;2.17;0.50;;;5.10;99.90;;;;;;5076478;28;20455;-83
2023/12/12 06:17:26;;;;;;;1.57;0.60;;;5.20;99.90;;;;;;5071816;28;20496;-82
2023/12/12 06:19:54;;;;;;;2.10;0.40;;;5.20;99.90;;;;;;5067576;28;20550;-83
2023/12/12 06:22:22;;;;;;;1.47;0.70;;;5.20;99.90;;;;;;5082007;28;20439;-83
2023/12/12 06:24:51;;;;;;;1.00;0.63;;;5.20;99.90;;;;;;5078415;28;20447;-83
2023/12/12 06:27:18;;;;;;;9.23;0.70;;;5.20;99.90;;;;;;5081115;28;20443;-83
2023/12/12 06:29:44;;;;;;;2.33;0.77;;;5.20;99.90;;;;;;5074145;28;20476;-83
2023/12/12 06:32:11;;;;;;;0.67;0.50;;;5.20;99.90;;;;;;5071370;28;20459;-83
2023/12/12 06:34:38;;;;;;;5.93;0.93;;;5.20;99.90;;;;;;5083692;28;20500;-83
2023/12/12 06:37:05;;;;;;;5.90;0.50;;;5.30;99.90;;;;;;5083128;28;20478;-84
2023/12/12 06:39:34;;;;;;;2.10;0.60;;;5.40;99.90;;;;;;5072054;28;20476;-84
2023/12/12 06:42:01;;;;;;;0.60;0.47;;;5.50;99.90;;;;;;5076215;28;20452;-83
2023/12/12 06:44:27;;;;;;;1.70;0.67;;;5.60;99.90;;;;;;5073750;28;20507;-83
2023/12/12 06:46:54;;;;;;;5.80;0.70;;;5.60;99.90;;;;;;5070382;28;20990;-81
2023/12/12 06:49:21;;;;;;;1.37;0.40;;;5.60;99.90;;;;;;5071507;28;20464;-81
2023/12/12 06:51:49;;;;;;;1.57;0.50;;;5.60;99.90;;;;;;5064003;28;20512;-82
2023/12/12 06:54:16;;;;;;;0.60;0.40;;;5.50;99.90;;;;;;5072550;28;20469;-82
2023/12/12 06:56:44;;;;;;;4.10;0.77;;;5.50;99.90;;;;;;5077420;28;20523;-82
2023/12/12 06:59:11;;;;;;;0.50;0.43;;;5.40;99.90;;;;;;5065962;28;20476;-82
2023/12/12 07:01:38;;;;;;;1.67;0.70;;;5.40;99.90;;;;;;5074219;28;20526;-83
2023/12/12 07:04:05;;;;;;;3.30;0.90;;;5.40;99.90;;;;;;5072498;28;20947;-82
2023/12/12 07:06:32;;;;;;;1.97;0.70;;;5.40;99.90;;;;;;5073205;28;20441;-82
2023/12/12 07:08:59;;;;;;;4.23;0.60;;;5.50;99.90;;;;;;5069198;28;20466;-82
2023/12/12 07:11:26;;;;;;;0.80;0.60;;;5.60;99.90;;;;;;5068469;28;20481;-82
2023/12/12 07:13:55;;;;;;;2.40;0.60;;;5.70;99.90;;;;;;5080580;28;20504;-82
2023/12/12 07:16:22;;;;;;;0.70;0.50;;;5.80;99.90;;;;;;5080039;28;20465;-82
2023/12/12 07:18:49;;;;;;;0.87;0.63;;;6.00;99.90;;;;;;5071131;28;20460;-82
2023/12/12 07:21:16;;;;;;;1.53;0.50;;;6.10;99.90;;;;;;5070977;28;20519;-82
2023/12/12 07:23:43;;;;;;;1.80;0.60;;;6.20;99.90;;;;;;5066425;28;20591;-82
2023/12/12 07:26:12;;;;;;;3.40;0.70;;;6.20;99.90;;;;;;5074124;28;20512;-82
2023/12/12 07:28:39;;;;;;;1.57;0.60;;;6.20;99.90;;;;;;5085277;28;20449;-82
2023/12/12 07:31:09;;;;;;;1.17;0.50;;;6.30;99.90;;;;;;5073920;28;21155;-82
2023/12/12 07:33:36;;;;;;;5.10;0.80;;;6.30;99.90;;;;;;5078825;28;20539;-82
2023/12/12 07:36:04;;;;;;;2.60;0.97;;;6.40;99.90;;;;;;5068621;28;20553;-82
2023/12/12 07:38:31;;;;;;;0.90;0.50;;;6.40;99.90;;;;;;5078039;28;20499;-83
2023/12/12 07:40:59;;;;;;;1.07;0.60;;;6.40;99.90;;;;;;5072081;28;20994;-81
2023/12/12 07:43:26;;;;;;;0.70;0.50;;;6.40;99.90;;;;;;5071189;28;20552;-82
2023/12/12 07:45:53;;;;;;;3.30;3.10;;;6.50;99.90;;;;;;5068282;28;20465;-81
2023/12/12 07:48:22;;;;;;;2.60;0.70;;;6.50;99.90;;;;;;5068383;28;20517;-81
2023/12/12 07:50:49;;;;;;;3.80;1.20;;;6.40;99.90;;;;;;5062986;28;20525;-82
2023/12/12 07:53:16;;;;;;;0.80;0.50;;;6.40;99.90;;;;;;5070020;28;20460;-82
2023/12/12 07:55:43;;;;;;;3.47;1.93;;;6.50;99.90;;;;;;5072889;28;20882;-82
2023/12/12 07:58:10;;;;;;;6.73;2.80;;;6.50;99.90;;;;;;5075108;28;21124;-82
2023/12/12 08:00:37;;;;;;;3.70;3.00;;;6.60;99.90;;;;;;5071234;28;20465;-82
2023/12/12 08:03:05;;;;;;;8.60;6.60;;;6.60;99.90;;;;;;5078844;28;20510;-82
2023/12/12 08:05:34;;;;;;;3.37;1.57;;;6.60;99.90;;;;;;5080891;28;20469;-82
2023/12/12 08:08:03;;;;;;;7.70;1.07;;;6.70;99.90;;;;;;5076305;28;20458;-82
2023/12/12 08:10:30;;;;;;;1.73;0.80;;;6.70;99.90;;;;;;5077365;28;20458;-83
2023/12/12 08:12:58;;;;;;;11.13;5.33;;;6.80;99.90;;;;;;5084744;28;20510;-82
2023/12/12 08:15:25;;;;;;;10.13;4.87;;;6.90;99.90;;;;;;5080917;28;20963;-82
2023/12/12 08:17:52;;;;;;;2.70;1.00;;;7.00;99.90;;;;;;5080930;28;20939;-83
2023/12/12 08:20:19;;;;;;;0.70;0.60;;;7.00;99.90;;;;;;5080250;28;20526;-82
2023/12/12 08:22:47;;;;;;;2.37;1.90;;;7.00;99.90;;;;;;5076277;28;20458;-82
2023/12/12 08:25:14;;;;;;;1.53;0.90;;;6.60;99.90;;;;;;5078981;28;20523;-82
2023/12/12 08:27:41;;;;;;;2.00;1.30;;;6.40;99.90;;;;;;5075043;28;20448;-82
2023/12/12 08:30:09;;;;;;;1.33;1.23;;;6.30;99.90;;;;;;5075589;28;20927;-82
2023/12/12 08:32:37;;;;;;;2.07;1.60;;;6.10;99.90;;;;;;5068406;28;20464;-82
2023/12/12 08:35:05;;;;;;;1.40;1.30;;;5.90;99.90;;;;;;5076019;28;20522;-83
2023/12/12 08:37:32;;;;;;;1.63;0.87;;;6.10;99.90;;;;;;5074850;28;20497;-83
2023/12/12 08:40:01;;;;;;;3.87;0.90;;;6.10;99.90;;;;;;5071325;28;20463;-83
2023/12/12 08:42:28;;;;;;;1.63;1.00;;;6.10;99.90;;;;;;5078386;28;21077;-83
2023/12/12 08:44:55;;;;;;;4.60;1.83;;;6.00;99.90;;;;;;5073498;28;20525;-82
2023/12/12 08:47:21;;;;;;;1.67;1.10;;;5.80;99.90;;;;;;5074937;28;20447;-83
2023/12/12 08:49:48;;;;;;;4.30;1.57;;;5.80;99.90;;;;;;5082919;28;20510;-83
2023/12/12 08:52:15;;;;;;;2.60;1.93;;;5.80;99.90;;;;;;5083652;28;20931;-83
2023/12/12 08:54:45;;;;;;;2.83;2.30;;;5.70;99.90;;;;;;5073675;28;21005;-83
2023/12/12 08:57:17;;;;;;;3.03;2.50;;;5.60;99.90;;;;;;5075816;28;21445;-83
2023/12/12 08:59:45;;;;;;;2.57;1.70;;;5.70;99.90;;;;;;5079233;28;20465;-83
2023/12/12 09:02:12;;;;;;;1.63;1.43;;;5.70;99.90;;;;;;5075625;28;20533;-83
2023/12/12 09:04:39;;;;;;;2.40;1.33;;;5.60;99.90;;;;;;5073056;28;20472;-83
2023/12/12 09:07:06;;;;;;;3.77;3.43;;;5.60;99.90;;;;;;5077671;28;20881;-83
2023/12/12 09:09:33;;;;;;;6.60;1.80;;;5.60;99.90;;;;;;5081102;28;20558;-83
2023/12/12 09:12:01;;;;;;;11.83;8.03;;;5.50;99.90;;;;;;5082179;28;20510;-83
2023/12/12 09:14:30;;;;;;;4.30;2.30;;;5.50;99.90;;;;;;5083366;28;21019;-83
2023/12/12 09:16:56;;;;;;;2.00;1.17;;;5.50;99.90;;;;;;5078611;28;20437;-82
2023/12/12 09:19:23;;;;;;;4.57;1.60;;;5.40;99.90;;;;;;5077838;28;20484;-82
2023/12/12 09:21:51;;;;;;;2.87;2.33;;;5.30;99.90;;;;;;5069727;28;20496;-83
2023/12/12 09:24:18;;;;;;;1.43;1.00;;;5.40;99.90;;;;;;5068864;28;20486;-83
2023/12/12 09:26:45;;;;;;;1.33;1.07;;;5.40;99.90;;;;;;5072968;28;20457;-83
2023/12/12 09:29:12;;;;;;;0.77;0.70;;;5.50;99.90;;;;;;5076277;28;20486;-83
2023/12/12 09:31:40;;;;;;;1.00;0.90;;;5.70;99.90;;;;;;5070379;28;20463;-83
2023/12/12 09:34:07;;;;;;;1.70;1.60;;;5.70;99.90;;;;;;5065580;28;20536;-83
2023/12/12 09:36:34;;;;;;;3.50;1.00;;;5.90;99.90;;;;;;5081556;28;20582;-83
2023/12/12 09:39:06;;;;;;;4.40;1.30;;;6.10;99.90;;;;;;5079504;28;20489;-82
2023/12/12 09:41:33;;;;;;;1.97;1.20;;;6.20;99.90;;;;;;5073671;28;20452;-83
2023/12/12 09:44:01;;;;;;;2.07;1.27;;;6.30;99.90;;;;;;5072428;28;20465;-83
2023/12/12 09:46:29;;;;;;;1.80;1.70;;;6.50;99.90;;;;;;5079936;28;20467;-83
2023/12/12 09:48:59;;;;;;;4.10;2.70;;;6.70;99.90;;;;;;5063346;28;20526;-83
2023/12/12 09:51:26;;;;;;;2.30;1.40;;;6.80;99.90;;;;;;5079095;28;20456;-83
2023/12/12 09:53:54;;;;;;;2.40;2.20;;;6.80;99.90;;;;;;5066705;28;20501;-83
2023/12/12 09:56:24;;;;;;;5.07;2.00;;;6.70;99.90;;;;;;5076821;28;20474;-83
2023/12/12 09:58:51;;;;;;;2.60;2.40;;;6.80;99.90;;;;;;5074605;28;21075;-83
2023/12/12 10:01:19;;;;;;;3.63;1.83;;;6.90;99.90;;;;;;5067109;28;20535;-83
2023/12/12 10:03:46;;;;;;;1.80;1.33;;;6.90;99.90;;;;;;5076990;28;20514;-83
2023/12/12 10:06:15;;;;;;;1.90;1.33;;;7.00;99.90;;;;;;5068794;28;20459;-83
2023/12/12 10:08:42;;;;;;;1.60;1.10;;;7.30;99.90;;;;;;5070366;28;20465;-83
2023/12/12 10:11:10;;;;;;;1.60;1.20;;;7.50;99.90;;;;;;5079160;28;20470;-82
2023/12/12 10:13:48;;;;;;;1.00;0.80;;;7.60;99.90;;;;;;5077824;28;20459;-83
2023/12/12 10:16:15;;;;;;;3.80;1.60;;;7.60;99.90;;;;;;5074825;28;20453;-83
2023/12/12 10:18:46;;;;;;;1.10;0.80;;;7.60;99.90;;;;;;5075622;28;20492;-83
2023/12/12 10:21:19;;;;;;;0.80;0.80;;;7.60;99.90;;;;;;5070806;28;20463;-83
2023/12/12 10:23:47;;;;;;;1.00;0.80;;;7.60;99.90;;;;;;5067187;28;20441;-83
2023/12/12 10:26:14;;;;;;;2.73;0.90;;;7.70;99.90;;;;;;5072137;28;20454;-83
2023/12/12 10:28:42;;;;;;;3.70;1.00;;;7.80;99.90;;;;;;5077616;28;20542;-83
2023/12/12 10:31:09;;;;;;;0.70;0.67;;;8.00;99.90;;;;;;5077361;28;20476;-83
2023/12/12 10:33:38;;;;;;;8.53;2.20;;;8.00;99.90;;;;;;5078257;28;20548;-83
2023/12/12 10:36:08;;;;;;;1.13;0.90;;;8.00;99.90;;;;;;5070686;28;20539;-83
2023/12/12 10:38:38;;;;;;;2.90;1.43;;;8.10;99.90;;;;;;5068170;28;20543;-83
2023/12/12 10:41:12;;;;;;;0.73;0.70;;;8.20;99.90;;;;;;5070698;28;20536;-83
2023/12/12 10:43:41;;;;;;;1.27;0.80;;;8.10;99.90;;;;;;5076320;28;20961;-83
2023/12/12 10:46:11;;;;;;;1.63;1.10;;;8.10;99.90;;;;;;5076297;28;20482;-83
2023/12/12 10:48:46;;;;;;;1.53;0.90;;;8.30;99.90;;;;;;5075821;28;20868;-83
2023/12/12 10:51:14;;;;;;;4.73;1.67;;;8.20;99.90;;;;;;5065204;28;20849;-82
2023/12/12 10:53:45;;;;;;;2.40;1.77;;;8.00;99.90;;;;;;5070590;28;20536;-82
2023/12/12 10:56:13;;;;;;;1.33;0.70;;;7.90;99.90;;;;;;5075371;28;20473;-82
2023/12/12 10:58:42;;;;;;;2.90;1.30;;;8.00;99.90;;;;;;5065104;28;20560;-83
2023/12/12 11:01:11;;;;;;;1.90;1.03;;;8.00;99.90;;;;;;5074968;28;20465;-82
2023/12/12 11:03:38;;;;;;;10.23;2.00;;;8.00;99.90;;;;;;5071509;28;20501;-82
2023/12/12 11:06:06;;;;;;;3.30;0.80;;;8.20;99.90;;;;;;5073853;28;20451;-82
2023/12/12 11:08:34;;;;;;;0.70;0.70;;;8.20;99.90;;;;;;5066915;28;20501;-82
2023/12/12 11:11:07;;;;;;;4.00;2.00;;;8.40;99.90;;;;;;5077587;28;20509;-82
2023/12/12 11:13:38;;;;;;;6.20;2.10;;;8.30;99.90;;;;;;5078732;28;20508;-82
2023/12/12 11:16:08;;;;;;;4.57;2.00;;;8.30;99.90;;;;;;5064713;28;20925;-82
2023/12/12 11:18:39;;;;;;;6.13;2.47;;;8.30;99.90;;;;;;5077856;28;20484;-81
2023/12/12 11:21:06;;;;;;;2.30;1.83;;;8.20;99.90;;;;;;5072060;28;20475;-83
2023/12/12 11:23:54;;;;;;;2.47;1.60;;;8.00;99.90;;;;;;5082611;28;20927;-83
2023/12/12 11:26:25;;;;;;;1.60;1.33;;;8.20;99.90;;;;;;5079750;28;21032;-83
2023/12/12 11:28:54;;;;;;;1.90;1.80;;;8.20;99.90;;;;;;5080416;28;20507;-83
2023/12/12 11:31:27;;;;;;;3.33;1.90;;;8.00;99.90;;;;;;5079520;28;20538;-83
2023/12/12 11:34:06;;;;;;;2.50;1.73;;;8.00;99.90;;;;;;5085143;28;20451;-83
2023/12/12 11:36:50;;;;;;;2.40;1.70;;;7.90;99.90;;;;;;5079614;28;20804;-84
2023/12/12 11:39:23;;;;;;;2.97;1.70;;;7.80;99.90;;;;;;5086529;28;20521;-84
2023/12/12 11:41:53;;;;;;;2.10;1.90;;;7.90;99.90;;;;;;5082627;28;20555;-83
2023/12/12 11:44:21;;;;;;;5.57;3.53;;;7.70;99.90;;;;;;5078773;28;20624;-84
2023/12/12 11:46:50;;;;;;;3.00;2.70;;;7.80;99.90;;;;;;5073232;28;20527;-83
2023/12/12 11:49:22;;;;;;;6.03;2.97;;;7.90;99.90;;;;;;5066239;28;20512;-84
2023/12/12 11:51:50;;;;;;;4.20;2.63;;;8.00;99.90;;;;;;5076744;28;20956;-84
2023/12/12 11:54:26;;;;;;;3.23;2.93;;;8.00;99.90;;;;;;5071877;28;20977;-84
2023/12/12 11:56:58;;;;;;;6.47;3.33;;;8.30;99.90;;;;;;5080508;28;21072;-83
2023/12/12 11:59:26;;;;;;;7.07;3.13;;;8.30;99.90;;;;;;5073164;28;20497;-84
2023/12/12 12:01:53;;;;;;;13.37;2.83;;;8.10;99.90;;;;;;5066558;28;21065;-84
2023/12/12 12:04:21;;;;;;;3.00;2.70;;;8.00;99.90;;;;;;5068800;28;20519;-84
2023/12/12 12:06:50;;;;;;;5.37;3.23;;;7.80;99.90;;;;;;5072748;28;20549;-84
2023/12/12 12:09:18;;;;;;;3.07;2.73;;;7.80;99.90;;;;;;5082502;28;20450;-83
2023/12/12 12:11:49;;;;;;;4.00;3.63;;;7.70;99.90;;;;;;5076372;28;20438;-84
2023/12/12 12:14:22;;;;;;;3.93;3.43;;;7.80;99.90;;;;;;5072505;28;20476;-84
2023/12/12 12:16:54;;;;;;;3.73;2.90;;;7.70;99.90;;;;;;5075272;28;21102;-84
2023/12/12 12:19:31;;;;;;;3.60;2.70;;;7.60;99.90;;;;;;5070320;28;20576;-84
2023/12/12 12:22:06;;;;;;;4.60;3.40;;;7.40;99.90;;;;;;5074718;28;20446;-82
2023/12/12 12:24:34;;;;;;;5.17;3.20;;;7.50;99.90;;;;;;5074674;28;20522;-82
2023/12/12 12:27:01;;;;;;;3.97;3.40;;;7.50;99.90;;;;;;5067552;28;20467;-82
2023/12/12 12:29:29;;;;;;;4.23;3.53;;;7.50;99.90;;;;;;5076317;28;20458;-82
2023/12/12 12:31:56;;;;;;;6.40;3.33;;;7.50;99.90;;;;;;5076160;28;20892;-82
2023/12/12 12:34:24;;;;;;;2.90;2.40;;;7.40;99.90;;;;;;5076355;28;20980;-82
2023/12/12 12:36:52;;;;;;;3.33;3.03;;;7.30;99.90;;;;;;5082472;28;20585;-82
2023/12/12 12:39:19;;;;;;;29.17;2.93;;;7.30;99.90;;;;;;5079111;28;20549;-82
2023/12/12 12:41:54;;;;;;;5.50;2.70;;;7.20;99.90;;;;;;5073444;28;20461;-82
2023/12/12 12:44:21;;;;;;;4.23;2.70;;;7.20;99.90;;;;;;5072644;28;20551;-82
2023/12/12 12:46:50;;;;;;;6.23;3.10;;;7.10;99.90;;;;;;5079412;28;20898;-82
2023/12/12 12:49:18;;;;;;;5.50;2.03;;;7.10;99.90;;;;;;5070500;28;20517;-82
2023/12/12 12:51:47;;;;;;;6.00;2.63;;;7.10;99.90;;;;;;5076532;28;20456;-82
2023/12/12 12:54:14;;;;;;;3.97;2.80;;;7.10;99.90;;;;;;5075635;28;20477;-83
2023/12/12 12:56:42;;;;;;;9.27;2.77;;;7.10;99.90;;;;;;5082648;28;20474;-82
2023/12/12 12:59:13;;;;;;;3.30;2.57;;;7.20;99.90;;;;;;5064747;28;20521;-82
2023/12/12 13:01:41;;;;;;;6.03;2.90;;;7.20;99.90;;;;;;5076885;28;20464;-83